createdAt,value
2023-02-11T00:01:25.384Z,14.57
2023-02-11T00:03:54.400Z,16.88
2023-02-11T00:06:23.469Z,11.23
2023-02-11T00:08:51.811Z,11.32
2023-02-11T00:11:25.538Z,20.58
2023-02-11T00:13:54.293Z,17.73
2023-02-11T00:16:22.957Z,12.18
2023-02-11T00:18:53.106Z,14.80
2023-02-11T00:21:25.739Z,16.05
2023-02-11T00:23:57.268Z,14.32
2023-02-11T00:26:30.498Z,14.35
2023-02-11T00:28:59.079Z,13.65
2023-02-11T00:31:28.164Z,17.08
2023-02-11T00:33:56.715Z,12.23
2023-02-11T00:36:27.356Z,9.02
2023-02-11T00:38:57.202Z,7.78
2023-02-11T00:41:27.341Z,16.92
2023-02-11T00:43:55.777Z,13.47
2023-02-11T00:46:25.003Z,11.27
2023-02-11T00:48:55.171Z,13.23
2023-02-11T00:51:23.588Z,12.50
2023-02-11T00:53:52.109Z,15.40
2023-02-11T00:56:20.902Z,13.10
2023-02-11T00:58:50.630Z,16.20
2023-02-11T01:01:19.166Z,13.05
2023-02-11T01:03:47.708Z,16.08
2023-02-11T01:06:16.188Z,14.68
2023-02-11T01:08:44.624Z,11.88
2023-02-11T01:11:15.992Z,21.95
2023-02-11T01:13:48.499Z,12.48
2023-02-11T01:16:19.357Z,12.73
2023-02-11T01:18:48.019Z,14.13
2023-02-11T01:21:16.525Z,14.63
2023-02-11T01:23:44.897Z,16.65
2023-02-11T01:26:13.424Z,16.05
2023-02-11T01:28:41.741Z,20.98
2023-02-11T01:31:10.210Z,14.73
2023-02-11T01:33:39.939Z,13.63
2023-02-11T01:36:08.845Z,12.85
2023-02-11T01:38:37.989Z,13.43
2023-02-11T01:41:08.304Z,14.02
2023-02-11T01:43:38.735Z,15.90
2023-02-11T01:46:21.689Z,23.35
2023-02-11T01:48:57.438Z,16.15
2023-02-11T01:51:30.816Z,11.48
2023-02-11T01:54:19.309Z,13.55
2023-02-11T01:57:08.341Z,13.77
2023-02-11T01:59:42.324Z,18.35
2023-02-11T02:02:14.998Z,22.17
2023-02-11T02:04:51.596Z,12.18
2023-02-11T02:07:27.957Z,16.98
2023-02-11T02:10:01.645Z,18.38
2023-02-11T02:12:30.109Z,15.10
2023-02-11T02:15:20.602Z,14.85
2023-02-11T02:17:57.792Z,23.70
2023-02-11T02:20:52.185Z,18.95
2023-02-11T02:23:34.136Z,14.93
2023-02-11T02:26:34.927Z,14.23
2023-02-11T02:29:36.294Z,16.98
2023-02-11T02:32:36.531Z,14.20
2023-02-11T02:35:16.859Z,14.05
2023-02-11T02:37:52.012Z,22.48
2023-02-11T02:40:25.007Z,11.63
2023-02-11T02:42:54.604Z,17.92
2023-02-11T02:45:23.044Z,13.07
2023-02-11T02:47:52.766Z,18.92
2023-02-11T02:50:30.252Z,12.75
2023-02-11T02:53:13.050Z,13.38
2023-02-11T02:55:53.224Z,15.43
2023-02-11T02:58:50.606Z,16.25
2023-02-11T03:01:29.636Z,18.38
2023-02-11T03:04:07.226Z,19.70
2023-02-11T03:06:43.592Z,15.35
2023-02-11T03:09:17.610Z,16.58
2023-02-11T03:11:46.993Z,17.17
2023-02-11T03:14:18.385Z,20.88
2023-02-11T03:16:49.246Z,18.60
2023-02-11T03:19:21.860Z,20.05
2023-02-11T03:21:52.648Z,22.20
2023-02-11T03:24:26.046Z,20.77
2023-02-11T03:26:57.346Z,18.53
2023-02-11T03:29:34.208Z,23.88
2023-02-11T03:32:07.878Z,22.45
2023-02-11T03:34:45.823Z,28.57
2023-02-11T03:37:17.870Z,25.40
2023-02-11T03:39:52.087Z,24.17
2023-02-11T03:42:21.709Z,26.80
2023-02-11T03:44:54.610Z,23.37
2023-02-11T03:47:27.068Z,23.43
2023-02-11T03:49:58.435Z,18.63
2023-02-11T03:52:29.201Z,25.80
2023-02-11T03:55:02.408Z,23.20
2023-02-11T03:57:30.738Z,23.00
2023-02-11T04:00:00.746Z,24.25
2023-02-11T04:02:32.829Z,26.80
2023-02-11T04:05:02.941Z,25.23
2023-02-11T04:07:31.923Z,24.93
2023-02-11T04:10:00.620Z,24.90
2023-02-11T04:12:28.970Z,27.10
2023-02-11T04:14:57.316Z,23.37
2023-02-11T04:17:25.839Z,30.23
2023-02-11T04:19:54.233Z,25.00
2023-02-11T04:22:23.910Z,30.50
2023-02-11T04:24:52.264Z,24.60
2023-02-11T04:27:20.727Z,29.52
2023-02-11T04:29:49.125Z,24.42
2023-02-11T04:32:17.584Z,32.25
2023-02-11T04:34:45.902Z,26.30
2023-02-11T04:37:14.236Z,30.90
2023-02-11T04:39:43.996Z,28.93
2023-02-11T04:42:12.337Z,26.83
2023-02-11T04:44:40.707Z,29.15
2023-02-11T04:47:09.047Z,31.23
2023-02-11T04:49:37.541Z,23.65
2023-02-11T04:52:05.915Z,28.33
2023-02-11T04:54:34.376Z,19.70
2023-02-11T04:57:04.518Z,27.08
2023-02-11T04:59:32.872Z,28.17
2023-02-11T05:02:02.540Z,28.73
2023-02-11T05:04:31.149Z,24.53
2023-02-11T05:06:59.672Z,21.00
2023-02-11T05:09:28.101Z,20.60
2023-02-11T05:11:56.451Z,28.20
2023-02-11T05:14:26.173Z,29.07
2023-02-11T05:16:54.740Z,32.88
2023-02-11T05:19:23.128Z,28.60
2023-02-11T05:22:02.139Z,29.05
2023-02-11T05:24:31.571Z,26.27
2023-02-11T05:26:59.996Z,27.10
2023-02-11T05:29:30.141Z,33.15
2023-02-11T05:32:00.839Z,29.27
2023-02-11T05:34:29.509Z,33.42
2023-02-11T05:36:57.866Z,31.93
2023-02-11T05:39:26.273Z,31.50
2023-02-11T05:41:54.565Z,29.67
2023-02-11T05:44:23.100Z,29.77
2023-02-11T05:46:52.817Z,32.58
2023-02-11T05:49:21.238Z,29.33
2023-02-11T05:51:49.907Z,36.20
2023-02-11T05:54:18.362Z,33.60
2023-02-11T05:56:46.782Z,35.77
2023-02-11T05:59:15.938Z,32.28
2023-02-11T06:01:44.311Z,38.30
2023-02-11T06:04:14.030Z,36.35
2023-02-11T06:06:42.478Z,35.17
2023-02-11T06:09:11.832Z,37.17
2023-02-11T06:11:40.131Z,34.65
2023-02-11T06:14:08.644Z,38.10
2023-02-11T06:16:36.925Z,42.73
2023-02-11T06:19:05.459Z,44.47
2023-02-11T06:21:43.244Z,48.57
2023-02-11T06:24:12.465Z,44.27
2023-02-11T06:26:40.952Z,44.40
2023-02-11T06:29:09.350Z,44.13
2023-02-11T06:31:39.770Z,46.53
2023-02-11T06:34:08.394Z,50.33
2023-02-11T06:36:40.499Z,44.37
2023-02-11T06:39:09.147Z,56.03
2023-02-11T06:41:37.847Z,60.27
2023-02-11T06:44:06.183Z,51.27
2023-02-11T06:46:34.993Z,51.97
2023-02-11T06:49:04.599Z,59.37
2023-02-11T06:51:32.899Z,55.53
2023-02-11T06:54:03.365Z,53.97
2023-02-11T06:56:31.752Z,57.13
2023-02-11T06:59:01.745Z,62.57
2023-02-11T07:01:30.132Z,66.53
2023-02-11T07:03:58.552Z,61.50
2023-02-11T07:06:28.331Z,60.03
2023-02-11T07:08:57.544Z,66.30
2023-02-11T07:11:29.027Z,68.00
2023-02-11T07:14:01.849Z,61.60
2023-02-11T07:16:30.692Z,67.10
2023-02-11T07:18:59.468Z,75.77
2023-02-11T07:21:29.023Z,70.07
2023-02-11T07:23:57.418Z,75.33
2023-02-11T07:26:27.398Z,81.20
2023-02-11T07:28:55.768Z,70.00
2023-02-11T07:31:26.185Z,73.37
2023-02-11T07:33:56.288Z,73.23
2023-02-11T07:36:25.420Z,81.90
2023-02-11T07:38:54.009Z,76.33
2023-02-11T07:41:23.836Z,80.37
2023-02-11T07:43:53.991Z,80.60
2023-02-11T07:46:24.340Z,82.95
2023-02-11T07:48:53.202Z,74.57
2023-02-11T07:51:23.904Z,70.57
2023-02-11T07:53:53.433Z,72.85
2023-02-11T07:56:22.727Z,87.95
2023-02-11T07:58:51.529Z,82.30
2023-02-11T08:01:25.310Z,82.83
2023-02-11T08:03:54.564Z,93.45
2023-02-11T08:06:25.444Z,81.50
2023-02-11T08:08:54.096Z,79.32
2023-02-11T08:11:24.539Z,83.10
2023-02-11T08:13:53.704Z,79.45
2023-02-11T08:16:25.777Z,81.32
2023-02-11T08:18:55.421Z,78.75
2023-02-11T08:21:23.861Z,76.85
2023-02-11T08:23:52.605Z,79.78
2023-02-11T08:26:22.824Z,79.15
2023-02-11T08:28:52.657Z,82.25
2023-02-11T08:31:24.694Z,69.53
2023-02-11T08:33:54.643Z,81.28
2023-02-11T08:36:25.469Z,80.13
2023-02-11T08:39:08.616Z,68.95
2023-02-11T08:41:44.888Z,79.40
2023-02-11T08:44:13.442Z,82.57
2023-02-11T08:46:43.241Z,75.40
2023-02-11T08:49:11.602Z,79.55
2023-02-11T08:51:40.125Z,78.45
2023-02-11T08:54:10.069Z,87.43
2023-02-11T08:56:39.916Z,81.10
2023-02-11T08:59:09.601Z,82.70
2023-02-11T09:01:38.143Z,77.85
2023-02-11T09:04:08.118Z,73.63
2023-02-11T09:06:36.499Z,82.28
2023-02-11T09:09:05.929Z,71.15
2023-02-11T09:11:36.605Z,81.38
2023-02-11T09:14:06.270Z,75.18
2023-02-11T09:16:37.141Z,70.72
2023-02-11T09:19:08.259Z,67.32
2023-02-11T09:21:36.797Z,71.55
2023-02-11T09:24:07.112Z,62.03
2023-02-11T09:26:36.725Z,64.93
2023-02-11T09:29:07.030Z,58.38
2023-02-11T09:31:36.431Z,68.50
2023-02-11T09:34:08.387Z,59.63
2023-02-11T09:36:39.134Z,67.75
2023-02-11T09:39:09.588Z,66.53
2023-02-11T09:42:05.044Z,60.03
2023-02-11T09:44:35.728Z,61.55
2023-02-11T09:47:07.040Z,65.22
2023-02-11T09:49:42.438Z,65.90
2023-02-11T09:52:20.226Z,60.47
2023-02-11T09:54:56.165Z,60.17
2023-02-11T09:57:29.387Z,54.97
2023-02-11T09:59:58.647Z,55.90
2023-02-11T10:02:35.665Z,61.05
2023-02-11T10:05:18.763Z,64.22
2023-02-11T10:07:53.680Z,54.78
2023-02-11T10:10:35.504Z,49.80
2023-02-11T10:13:21.052Z,50.45
2023-02-11T10:16:00.691Z,46.40
2023-02-11T10:19:06.251Z,50.33
2023-02-11T10:21:47.437Z,50.10
2023-02-11T10:24:18.273Z,47.30
2023-02-11T10:26:47.357Z,46.03
2023-02-11T10:29:32.675Z,46.90
2023-02-11T10:32:04.225Z,41.65
2023-02-11T10:34:32.626Z,42.03
2023-02-11T10:37:02.452Z,44.83
2023-02-11T10:39:31.984Z,43.20
2023-02-11T10:42:04.150Z,45.13
2023-02-11T10:44:34.711Z,40.33
2023-02-11T10:47:06.519Z,37.22
2023-02-11T10:49:39.999Z,36.65
2023-02-11T10:52:20.259Z,37.38
2023-02-11T10:55:04.045Z,37.83
2023-02-11T10:57:36.173Z,39.25
2023-02-11T11:00:24.233Z,44.40
2023-02-11T11:02:58.022Z,36.63
2023-02-11T11:05:32.578Z,31.02
2023-02-11T11:08:05.639Z,39.17
2023-02-11T11:10:43.572Z,36.38
2023-02-11T11:13:36.810Z,35.80
2023-02-11T11:16:20.920Z,35.35
2023-02-11T11:18:50.804Z,31.70
2023-02-11T11:21:23.373Z,28.42
2023-02-11T11:23:57.291Z,30.63
2023-02-11T11:26:27.476Z,31.83
2023-02-11T11:28:59.856Z,28.48
2023-02-11T11:31:33.144Z,25.77
2023-02-11T11:34:06.513Z,25.45
2023-02-11T11:36:37.783Z,24.63
2023-02-11T11:39:21.643Z,25.25
2023-02-11T11:41:55.962Z,24.17
2023-02-11T11:44:30.551Z,28.90
2023-02-11T11:47:32.081Z,23.35
2023-02-11T11:50:28.036Z,28.20
2023-02-11T11:53:04.042Z,21.83
2023-02-11T11:55:41.860Z,20.48
2023-02-11T11:58:16.539Z,20.35
2023-02-11T12:00:59.210Z,20.85
2023-02-11T12:04:02.927Z,25.05
2023-02-11T12:06:41.480Z,24.13
2023-02-11T12:09:19.775Z,20.95
2023-02-11T12:12:07.343Z,20.67
2023-02-11T12:14:44.925Z,21.30
2023-02-11T12:17:25.256Z,20.95
2023-02-11T12:20:07.885Z,23.50
2023-02-11T12:22:45.579Z,23.08
2023-02-11T12:25:28.888Z,20.60
2023-02-11T12:28:11.848Z,20.10
2023-02-11T12:30:51.007Z,18.73
2023-02-11T12:33:37.204Z,21.73
2023-02-11T12:36:16.234Z,20.83
2023-02-11T12:39:02.840Z,23.27
2023-02-11T12:42:02.846Z,20.90
2023-02-11T12:44:44.072Z,23.55
2023-02-11T12:47:21.914Z,18.85
2023-02-11T12:50:06.189Z,20.80
2023-02-11T12:52:46.197Z,17.23
2023-02-11T12:55:23.764Z,20.50
2023-02-11T12:57:54.641Z,20.10
2023-02-11T13:00:26.850Z,26.60
2023-02-11T13:03:01.425Z,20.15
2023-02-11T13:05:35.067Z,18.50
2023-02-11T13:08:13.450Z,20.00
2023-02-11T13:10:44.580Z,18.63
2023-02-11T13:13:19.604Z,17.85
2023-02-11T13:15:55.020Z,23.55
2023-02-11T13:18:33.622Z,17.80
2023-02-11T13:21:21.027Z,20.73
2023-02-11T13:23:56.805Z,19.98
2023-02-11T13:26:30.814Z,18.55
2023-02-11T13:29:10.436Z,19.67
2023-02-11T13:31:40.434Z,20.73
2023-02-11T13:34:25.983Z,22.95
2023-02-11T13:36:58.625Z,20.48
2023-02-11T13:39:27.215Z,20.90
2023-02-11T13:42:04.907Z,19.92
2023-02-11T13:44:36.176Z,24.27
2023-02-11T13:47:07.487Z,20.63
2023-02-11T13:49:40.881Z,18.08
2023-02-11T13:52:25.097Z,16.20
2023-02-11T13:54:55.774Z,18.73
2023-02-11T13:57:31.991Z,22.90
2023-02-11T14:00:01.855Z,17.98
2023-02-11T14:02:52.216Z,36.38
2023-02-11T14:05:49.504Z,18.55
2023-02-11T14:08:41.446Z,19.73
2023-02-11T14:11:31.997Z,20.10
2023-02-11T14:14:19.498Z,20.60
2023-02-11T14:17:21.365Z,18.95
2023-02-11T14:19:52.923Z,20.23
2023-02-11T14:22:26.082Z,16.33
2023-02-11T14:24:57.201Z,18.73
2023-02-11T14:27:42.003Z,22.90
2023-02-11T14:30:48.773Z,20.42
2023-02-11T14:33:44.321Z,20.08
2023-02-11T14:36:30.925Z,18.52
2023-02-11T14:39:07.411Z,16.77
2023-02-11T14:41:41.872Z,19.83
2023-02-11T14:44:16.556Z,18.40
2023-02-11T14:46:52.012Z,17.33
2023-02-11T14:49:27.484Z,18.10
2023-02-11T14:52:01.828Z,18.63
2023-02-11T14:54:31.147Z,19.90
2023-02-11T14:57:12.875Z,17.90
2023-02-11T14:59:42.406Z,18.90
2023-02-11T15:02:23.775Z,25.60
2023-02-11T15:04:52.191Z,23.95
2023-02-11T15:07:22.279Z,23.08
2023-02-11T15:09:53.355Z,20.15
2023-02-11T15:12:25.267Z,21.83
2023-02-11T15:14:56.406Z,20.70
2023-02-11T15:17:27.739Z,16.90
2023-02-11T15:19:59.182Z,19.40
2023-02-11T15:22:32.962Z,25.58
2023-02-11T15:25:04.070Z,20.48
2023-02-11T15:27:41.254Z,19.50
2023-02-11T15:30:34.179Z,22.77
2023-02-11T15:33:06.139Z,23.67
2023-02-11T15:35:36.767Z,18.30
2023-02-11T15:38:06.867Z,17.92
2023-02-11T15:40:36.874Z,20.98
2023-02-11T15:43:07.065Z,21.75
2023-02-11T15:45:38.039Z,25.15
2023-02-11T15:48:15.606Z,17.77
2023-02-11T15:50:52.360Z,17.08
2023-02-11T15:53:26.983Z,22.98
2023-02-11T15:56:00.782Z,16.30
2023-02-11T15:58:29.301Z,21.35
2023-02-11T16:01:00.015Z,21.80
2023-02-11T16:03:33.072Z,21.63
2023-02-11T16:06:17.291Z,18.77
2023-02-11T16:08:58.512Z,19.20
2023-02-11T16:11:31.568Z,16.95
2023-02-11T16:14:01.301Z,19.95
2023-02-11T16:16:33.039Z,18.10
2023-02-11T16:19:06.001Z,18.73
2023-02-11T16:21:39.128Z,21.23
2023-02-11T16:24:17.116Z,45.45
2023-02-11T16:26:50.135Z,22.05
2023-02-11T16:29:22.129Z,24.63
2023-02-11T16:31:51.096Z,20.00
2023-02-11T16:34:20.902Z,25.27
2023-02-11T16:36:50.806Z,21.65
2023-02-11T16:39:22.582Z,21.10
2023-02-11T16:41:52.217Z,19.42
2023-02-11T16:44:21.169Z,20.35
2023-02-11T16:46:50.395Z,21.48
2023-02-11T16:49:22.546Z,18.92
2023-02-11T16:51:53.333Z,21.92
2023-02-11T16:54:23.079Z,25.88
2023-02-11T16:56:51.614Z,20.02
2023-02-11T16:59:21.230Z,23.75
2023-02-11T17:01:50.625Z,21.58
2023-02-11T17:04:22.229Z,21.08
2023-02-11T17:06:50.630Z,25.20
2023-02-11T17:09:21.878Z,25.25
2023-02-11T17:11:52.457Z,22.67
2023-02-11T17:14:21.565Z,28.55
2023-02-11T17:16:50.121Z,23.67
2023-02-11T17:19:21.063Z,28.85
2023-02-11T17:21:52.153Z,28.27
2023-02-11T17:24:21.517Z,25.02
2023-02-11T17:26:51.945Z,24.00
2023-02-11T17:29:22.670Z,30.48
2023-02-11T17:31:51.690Z,23.60
2023-02-11T17:34:20.931Z,32.08
2023-02-11T17:36:49.587Z,25.92
2023-02-11T17:39:19.338Z,28.42
2023-02-11T17:41:47.835Z,34.45
2023-02-11T17:44:17.658Z,31.67
2023-02-11T17:46:45.944Z,25.38
2023-02-11T17:49:14.292Z,26.73
2023-02-11T17:51:45.535Z,27.65
2023-02-11T17:54:16.959Z,28.48
2023-02-11T17:56:49.328Z,29.80
2023-02-11T17:59:20.157Z,40.78
2023-02-11T18:01:48.914Z,28.48
2023-02-11T18:04:20.359Z,30.13
2023-02-11T18:06:49.024Z,28.48
2023-02-11T18:09:17.432Z,26.70
2023-02-11T18:11:46.622Z,30.20
2023-02-11T18:14:19.605Z,26.85
2023-02-11T18:16:51.872Z,25.75
2023-02-11T18:19:20.834Z,25.23
2023-02-11T18:21:51.002Z,23.73
2023-02-11T18:24:24.935Z,23.48
2023-02-11T18:26:53.395Z,23.63
2023-02-11T18:29:23.189Z,24.42
2023-02-11T18:31:51.623Z,28.17
2023-02-11T18:34:20.120Z,35.42
2023-02-11T18:36:49.019Z,34.03
2023-02-11T18:39:18.754Z,30.67
2023-02-11T18:41:47.424Z,29.20
2023-02-11T18:44:22.165Z,27.55
2023-02-11T18:46:52.294Z,28.38
2023-02-11T18:49:20.899Z,37.10
2023-02-11T18:51:49.305Z,28.73
2023-02-11T18:54:17.964Z,34.60
2023-02-11T18:56:46.462Z,31.77
2023-02-11T18:59:14.929Z,35.50
2023-02-11T19:01:47.100Z,32.17
2023-02-11T19:04:19.946Z,28.63
2023-02-11T19:06:50.179Z,32.45
2023-02-11T19:09:20.536Z,28.75
2023-02-11T19:11:50.024Z,38.65
2023-02-11T19:14:22.048Z,30.55
2023-02-11T19:16:55.391Z,32.20
2023-02-11T19:19:27.987Z,40.15
2023-02-11T19:21:57.472Z,34.60
2023-02-11T19:24:27.207Z,31.77
2023-02-11T19:26:58.216Z,35.22
2023-02-11T19:29:27.110Z,40.40
2023-02-11T19:31:55.940Z,32.33
2023-02-11T19:34:25.930Z,38.00
2023-02-11T19:36:54.834Z,37.08
2023-02-11T19:39:24.805Z,34.60
2023-02-11T19:41:53.547Z,43.35
2023-02-11T19:44:21.954Z,37.22
2023-02-11T19:46:52.862Z,41.45
2023-02-11T19:49:26.000Z,43.17
2023-02-11T19:51:58.240Z,34.38
2023-02-11T19:54:29.060Z,31.90
2023-02-11T19:56:57.867Z,31.65
2023-02-11T19:59:26.849Z,32.15
2023-02-11T20:01:55.214Z,32.83
2023-02-11T20:04:25.142Z,24.83
2023-02-11T20:06:53.590Z,25.63
2023-02-11T20:09:23.367Z,31.65
2023-02-11T20:11:51.778Z,25.45
2023-02-11T20:14:22.011Z,36.83
2023-02-11T20:16:50.618Z,31.13
2023-02-11T20:19:21.868Z,28.20
2023-02-11T20:21:52.786Z,30.45
2023-02-11T20:24:23.614Z,24.05
2023-02-11T20:26:55.635Z,14.98
2023-02-11T20:29:25.347Z,22.15
2023-02-11T20:31:54.020Z,24.83
2023-02-11T20:34:22.563Z,24.40
2023-02-11T20:36:52.859Z,23.92
2023-02-11T20:39:24.276Z,33.25
2023-02-11T20:41:53.962Z,32.80
2023-02-11T20:44:22.929Z,23.90
2023-02-11T20:46:53.929Z,31.38
2023-02-11T20:49:25.345Z,26.67
2023-02-11T20:51:55.816Z,24.50
2023-02-11T20:54:26.832Z,20.60
2023-02-11T20:56:56.923Z,23.38
2023-02-11T20:59:27.818Z,21.75
2023-02-11T21:01:57.782Z,28.95
2023-02-11T21:04:27.982Z,26.95
2023-02-11T21:06:58.499Z,22.15
2023-02-11T21:09:30.993Z,27.70
2023-02-11T21:11:59.510Z,24.60
2023-02-11T21:14:29.110Z,25.65
2023-02-11T21:16:57.651Z,27.13
2023-02-11T21:19:26.295Z,27.65
2023-02-11T21:21:55.229Z,35.97
2023-02-11T21:24:23.864Z,39.05
2023-02-11T21:26:54.847Z,33.20
2023-02-11T21:29:23.472Z,29.73
2023-02-11T21:31:52.064Z,28.17
2023-02-11T21:34:20.845Z,34.90
2023-02-11T21:36:51.276Z,36.15
2023-02-11T21:39:21.112Z,33.20
2023-02-11T21:41:49.677Z,32.95
2023-02-11T21:44:19.531Z,33.03
2023-02-11T21:46:47.989Z,33.30
2023-02-11T21:49:16.367Z,25.88
2023-02-11T21:51:44.806Z,26.70
2023-02-11T21:54:13.489Z,28.75
2023-02-11T21:56:41.807Z,23.65
2023-02-11T21:59:14.606Z,23.77
2023-02-11T22:01:46.112Z,26.30
2023-02-11T22:04:14.524Z,22.65
2023-02-11T22:06:42.977Z,24.88
2023-02-11T22:09:11.901Z,20.48
2023-02-11T22:11:40.501Z,20.55
2023-02-11T22:14:09.020Z,21.60
2023-02-11T22:16:37.835Z,11.43
2023-02-11T22:19:07.766Z,20.42
2023-02-11T22:21:36.146Z,18.95
2023-02-11T22:24:04.818Z,19.67
2023-02-11T22:26:33.238Z,21.90
2023-02-11T22:29:03.481Z,25.00
2023-02-11T22:31:34.449Z,19.58
2023-02-11T22:34:03.917Z,18.38
2023-02-11T22:36:35.265Z,16.58
2023-02-11T22:39:05.262Z,15.32
2023-02-11T22:41:33.695Z,17.83
2023-02-11T22:44:02.131Z,12.77
2023-02-11T22:46:31.353Z,14.05
2023-02-11T22:48:59.887Z,16.08
2023-02-11T22:51:30.273Z,14.07
2023-02-11T22:54:02.416Z,16.42
2023-02-11T22:56:32.486Z,14.35
2023-02-11T22:59:01.900Z,15.35
2023-02-11T23:01:31.586Z,15.30
2023-02-11T23:04:03.451Z,14.07
2023-02-11T23:06:31.907Z,12.52
2023-02-11T23:09:02.854Z,10.25
2023-02-11T23:11:32.350Z,13.13
2023-02-11T23:14:01.941Z,11.63
2023-02-11T23:16:32.825Z,10.98
2023-02-11T23:19:02.235Z,9.57
2023-02-11T23:21:33.548Z,9.55
2023-02-11T23:24:05.865Z,8.27
2023-02-11T23:26:34.873Z,13.10
2023-02-11T23:29:03.310Z,10.70
2023-02-11T23:31:35.150Z,11.70
2023-02-11T23:34:03.708Z,9.23
2023-02-11T23:36:32.641Z,10.80
2023-02-11T23:39:03.237Z,10.23
2023-02-11T23:41:31.684Z,9.07
2023-02-11T23:44:00.205Z,11.45
2023-02-11T23:46:29.680Z,11.35
2023-02-11T23:48:59.218Z,9.38
2023-02-11T23:51:27.858Z,10.50
2023-02-11T23:53:57.069Z,10.60
2023-02-11T23:56:28.724Z,11.00
2023-02-11T23:58:58.719Z,10.10
